sensor_id;sensor_type;location;lat;lon;timestamp;pressure;altitude;pressure_sealevel;temperature;humidity
15568;BME280;7885;42.596;23.044;2023-12-20T00:01:38;93182.81;;;0.30;100.00
15568;BME280;7885;42.596;23.044;2023-12-20T00:04:05;93262.19;;;0.85;100.00
15568;BME280;7885;42.596;23.044;2023-12-20T00:06:51;93266.88;;;0.88;100.00
15568;BME280;7885;42.596;23.044;2023-12-20T00:09:18;93254.16;;;0.85;100.00
15568;BME280;7885;42.596;23.044;2023-12-20T00:11:45;93257.28;;;0.87;100.00
15568;BME280;7885;42.596;23.044;2023-12-20T00:14:11;93239.56;;;0.74;100.00
15568;BME280;7885;42.596;23.044;2023-12-20T00:16:39;93266.44;;;0.86;100.00
15568;BME280;7885;42.596;23.044;2023-12-20T00:19:06;93252.78;;;0.79;100.00
15568;BME280;7885;42.596;23.044;2023-12-20T00:21:33;93259.69;;;0.80;100.00
15568;BME280;7885;42.596;23.044;2023-12-20T00:23:59;93251.31;;;0.81;100.00
15568;BME280;7885;42.596;23.044;2023-12-20T00:26:27;93230.28;;;0.71;100.00
15568;BME280;7885;42.596;23.044;2023-12-20T00:28:54;93245.19;;;0.81;100.00
15568;BME280;7885;42.596;23.044;2023-12-20T00:31:21;93235.50;;;0.68;100.00
15568;BME280;7885;42.596;23.044;2023-12-20T00:33:49;93228.41;;;0.72;100.00
15568;BME280;7885;42.596;23.044;2023-12-20T00:36:15;93235.91;;;0.78;100.00
15568;BME280;7885;42.596;23.044;2023-12-20T00:38:42;93232.88;;;0.80;100.00
15568;BME280;7885;42.596;23.044;2023-12-20T00:41:09;93227.22;;;0.81;100.00
15568;BME280;7885;42.596;23.044;2023-12-20T00:43:35;93231.78;;;0.81;100.00
15568;BME280;7885;42.596;23.044;2023-12-20T00:46:02;93197.75;;;0.61;100.00
15568;BME280;7885;42.596;23.044;2023-12-20T00:48:29;93205.94;;;0.56;100.00
15568;BME280;7885;42.596;23.044;2023-12-20T00:50:58;93201.91;;;0.49;100.00
15568;BME280;7885;42.596;23.044;2023-12-20T00:53:24;93217.59;;;0.60;100.00
15568;BME280;7885;42.596;23.044;2023-12-20T00:55:51;93222.03;;;0.56;100.00
15568;BME280;7885;42.596;23.044;2023-12-20T00:58:18;93209.09;;;0.58;100.00
15568;BME280;7885;42.596;23.044;2023-12-20T01:00:44;93213.16;;;0.64;100.00
15568;BME280;7885;42.596;23.044;2023-12-20T01:03:10;93212.06;;;0.65;100.00
15568;BME280;7885;42.596;23.044;2023-12-20T01:05:37;93189.88;;;0.56;100.00
15568;BME280;7885;42.596;23.044;2023-12-20T01:08:06;93201.34;;;0.65;100.00
15568;BME280;7885;42.596;23.044;2023-12-20T01:10:33;93199.31;;;0.62;100.00
15568;BME280;7885;42.596;23.044;2023-12-20T01:12:59;93213.66;;;0.57;100.00
15568;BME280;7885;42.596;23.044;2023-12-20T01:15:26;93199.22;;;0.49;100.00
15568;BME280;7885;42.596;23.044;2023-12-20T01:17:52;93193.16;;;0.40;100.00
15568;BME280;7885;42.596;23.044;2023-12-20T01:20:19;93197.72;;;0.40;100.00
15568;BME280;7885;42.596;23.044;2023-12-20T01:22:46;93167.66;;;0.14;100.00
15568;BME280;7885;42.596;23.044;2023-12-20T01:25:14;93191.03;;;0.25;100.00
15568;BME280;7885;42.596;23.044;2023-12-20T01:27:41;93174.56;;;0.15;100.00
15568;BME280;7885;42.596;23.044;2023-12-20T01:30:08;93186.97;;;0.19;100.00
15568;BME280;7885;42.596;23.044;2023-12-20T01:32:35;93178.50;;;0.17;100.00
15568;BME280;7885;42.596;23.044;2023-12-20T01:35:02;93176.91;;;0.16;100.00
15568;BME280;7885;42.596;23.044;2023-12-20T01:37:29;93179.59;;;0.16;100.00
15568;BME280;7885;42.596;23.044;2023-12-20T01:39:55;93125.34;;;-0.22;100.00
15568;BME280;7885;42.596;23.044;2023-12-20T01:42:23;93121.09;;;-0.23;100.00
15568;BME280;7885;42.596;23.044;2023-12-20T01:44:50;93107.25;;;-0.25;100.00
15568;BME280;7885;42.596;23.044;2023-12-20T01:47:17;93164.78;;;0.19;100.00
15568;BME280;7885;42.596;23.044;2023-12-20T01:49:44;93136.28;;;0.14;100.00
15568;BME280;7885;42.596;23.044;2023-12-20T01:52:10;93096.88;;;0.03;100.00
15568;BME280;7885;42.596;23.044;2023-12-20T01:54:38;93107.59;;;0.03;100.00
15568;BME280;7885;42.596;23.044;2023-12-20T01:57:06;93111.13;;;0.15;100.00
15568;BME280;7885;42.596;23.044;2023-12-20T01:59:35;93144.44;;;0.26;100.00
15568;BME280;7885;42.596;23.044;2023-12-20T02:02:03;93130.81;;;0.11;100.00
15568;BME280;7885;42.596;23.044;2023-12-20T02:04:30;93129.78;;;0.03;100.00
15568;BME280;7885;42.596;23.044;2023-12-20T02:06:57;93134.66;;;0.01;100.00
15568;BME280;7885;42.596;23.044;2023-12-20T02:09:25;93124.94;;;-0.04;100.00
15568;BME280;7885;42.596;23.044;2023-12-20T02:11:53;93075.53;;;-0.35;100.00
15568;BME280;7885;42.596;23.044;2023-12-20T02:14:20;93119.72;;;0.00;100.00
15568;BME280;7885;42.596;23.044;2023-12-20T02:16:48;93072.16;;;-0.24;100.00
15568;BME280;7885;42.596;23.044;2023-12-20T02:19:15;93074.31;;;-0.17;100.00
15568;BME280;7885;42.596;23.044;2023-12-20T02:21:45;93106.78;;;0.02;100.00
15568;BME280;7885;42.596;23.044;2023-12-20T02:24:12;93091.66;;;0.06;100.00
15568;BME280;7885;42.596;23.044;2023-12-20T02:26:39;93115.16;;;0.21;100.00
15568;BME280;7885;42.596;23.044;2023-12-20T02:29:05;92994.16;;;-0.46;100.00
15568;BME280;7885;42.596;23.044;2023-12-20T02:31:32;93056.16;;;-0.03;100.00
15568;BME280;7885;42.596;23.044;2023-12-20T02:33:59;93042.63;;;-0.07;100.00
15568;BME280;7885;42.596;23.044;2023-12-20T02:36:26;93104.81;;;0.40;100.00
15568;BME280;7885;42.596;23.044;2023-12-20T02:38:54;93025.34;;;-0.09;100.00
15568;BME280;7885;42.596;23.044;2023-12-20T02:41:20;93102.25;;;0.44;100.00
15568;BME280;7885;42.596;23.044;2023-12-20T02:43:47;93094.09;;;0.40;99.45
15568;BME280;7885;42.596;23.044;2023-12-20T02:46:15;93082.03;;;0.34;99.54
15568;BME280;7885;42.596;23.044;2023-12-20T02:48:43;93105.53;;;0.49;99.07
15568;BME280;7885;42.596;23.044;2023-12-20T02:51:09;93065.44;;;0.20;98.82
15568;BME280;7885;42.596;23.044;2023-12-20T02:53:36;93054.59;;;0.17;98.69
15568;BME280;7885;42.596;23.044;2023-12-20T02:56:05;93097.84;;;0.48;98.73
15568;BME280;7885;42.596;23.044;2023-12-20T02:58:32;93009.31;;;-0.09;98.33
15568;BME280;7885;42.596;23.044;2023-12-20T03:00:59;93104.88;;;0.52;98.73
15568;BME280;7885;42.596;23.044;2023-12-20T03:03:25;93039.97;;;0.14;98.26
15568;BME280;7885;42.596;23.044;2023-12-20T03:05:52;93016.38;;;-0.05;98.14
15568;BME280;7885;42.596;23.044;2023-12-20T03:08:19;93054.94;;;0.15;98.46
15568;BME280;7885;42.596;23.044;2023-12-20T03:10:45;93088.75;;;0.40;99.03
15568;BME280;7885;42.596;23.044;2023-12-20T03:13:14;93088.41;;;0.42;98.49
15568;BME280;7885;42.596;23.044;2023-12-20T03:15:40;93089.59;;;0.32;98.50
15568;BME280;7885;42.596;23.044;2023-12-20T03:18:07;93017.53;;;-0.14;99.17
15568;BME280;7885;42.596;23.044;2023-12-20T03:20:34;93041.63;;;0.07;99.40
15568;BME280;7885;42.596;23.044;2023-12-20T03:23:01;93085.69;;;0.30;99.86
15568;BME280;7885;42.596;23.044;2023-12-20T03:25:27;93081.56;;;0.32;99.96
15568;BME280;7885;42.596;23.044;2023-12-20T03:27:54;92935.31;;;-0.67;99.89
15568;BME280;7885;42.596;23.044;2023-12-20T03:30:22;93083.31;;;0.28;99.64
15568;BME280;7885;42.596;23.044;2023-12-20T03:32:49;92986.00;;;-0.29;99.85
15568;BME280;7885;42.596;23.044;2023-12-20T03:35:16;93058.53;;;0.19;100.00
15568;BME280;7885;42.596;23.044;2023-12-20T03:37:43;93039.53;;;0.12;99.60
15568;BME280;7885;42.596;23.044;2023-12-20T03:46:55;93058.91;;;0.30;99.20
15568;BME280;7885;42.596;23.044;2023-12-20T03:49:22;93062.03;;;0.32;99.36
15568;BME280;7885;42.596;23.044;2023-12-20T03:51:48;93060.63;;;0.34;98.88
15568;BME280;7885;42.596;23.044;2023-12-20T03:54:15;93053.97;;;0.20;98.42
15568;BME280;7885;42.596;23.044;2023-12-20T03:56:42;93052.50;;;0.22;98.62
15568;BME280;7885;42.596;23.044;2023-12-20T03:59:08;93059.44;;;0.23;98.65
15568;BME280;7885;42.596;23.044;2023-12-20T04:01:35;93063.03;;;0.27;98.52
15568;BME280;7885;42.596;23.044;2023-12-20T04:04:03;93009.78;;;-0.07;98.46
15568;BME280;7885;42.596;23.044;2023-12-20T04:06:30;93021.97;;;0.03;98.75
15568;BME280;7885;42.596;23.044;2023-12-20T04:08:57;93038.03;;;0.23;98.82
15568;BME280;7885;42.596;23.044;2023-12-20T04:14:45;93038.56;;;-0.04;98.21
15568;BME280;7885;42.596;23.044;2023-12-20T04:17:12;93030.81;;;-0.26;99.13
15568;BME280;7885;42.596;23.044;2023-12-20T04:19:42;93039.50;;;-0.29;100.00
15568;BME280;7885;42.596;23.044;2023-12-20T04:22:09;93023.84;;;-0.48;100.00
15568;BME280;7885;42.596;23.044;2023-12-20T04:24:36;93014.94;;;-0.52;100.00
15568;BME280;7885;42.596;23.044;2023-12-20T04:27:03;93039.53;;;-0.38;99.98
15568;BME280;7885;42.596;23.044;2023-12-20T04:29:30;93025.19;;;-0.33;100.00
15568;BME280;7885;42.596;23.044;2023-12-20T04:31:56;93031.47;;;-0.29;100.00
15568;BME280;7885;42.596;23.044;2023-12-20T04:34:23;92983.81;;;-0.57;100.00
15568;BME280;7885;42.596;23.044;2023-12-20T04:36:52;93009.50;;;-0.35;100.00
15568;BME280;7885;42.596;23.044;2023-12-20T04:39:19;93006.03;;;-0.35;100.00
15568;BME280;7885;42.596;23.044;2023-12-20T04:41:45;93017.28;;;-0.21;100.00
15568;BME280;7885;42.596;23.044;2023-12-20T04:44:13;93006.63;;;-0.30;100.00
15568;BME280;7885;42.596;23.044;2023-12-20T04:46:40;93011.66;;;-0.28;100.00
15568;BME280;7885;42.596;23.044;2023-12-20T04:49:06;93027.31;;;-0.18;99.95
15568;BME280;7885;42.596;23.044;2023-12-20T04:51:33;93016.34;;;-0.25;100.00
15568;BME280;7885;42.596;23.044;2023-12-20T04:54:02;93029.78;;;-0.13;100.00
15568;BME280;7885;42.596;23.044;2023-12-20T04:56:29;93011.72;;;-0.16;99.38
15568;BME280;7885;42.596;23.044;2023-12-20T04:58:55;92971.47;;;-0.40;98.92
15568;BME280;7885;42.596;23.044;2023-12-20T05:01:22;92976.63;;;-0.35;98.76
15568;BME280;7885;42.596;23.044;2023-12-20T05:03:49;93009.31;;;-0.09;98.91
15568;BME280;7885;42.596;23.044;2023-12-20T05:06:16;93000.75;;;-0.23;99.39
15568;BME280;7885;42.596;23.044;2023-12-20T05:08:42;92954.84;;;-0.46;99.04
15568;BME280;7885;42.596;23.044;2023-12-20T05:11:11;92979.28;;;-0.35;99.15
15568;BME280;7885;42.596;23.044;2023-12-20T05:13:39;92986.41;;;-0.39;99.16
15568;BME280;7885;42.596;23.044;2023-12-20T05:16:06;92996.25;;;-0.31;99.79
15568;BME280;7885;42.596;23.044;2023-12-20T05:18:34;92966.34;;;-0.54;98.97
15568;BME280;7885;42.596;23.044;2023-12-20T05:21:01;92947.09;;;-0.68;99.76
15568;BME280;7885;42.596;23.044;2023-12-20T05:23:28;92986.41;;;-0.39;99.59
15568;BME280;7885;42.596;23.044;2023-12-20T05:25:55;92943.19;;;-0.71;99.50
15568;BME280;7885;42.596;23.044;2023-12-20T05:28:23;92955.53;;;-0.58;99.88
15568;BME280;7885;42.596;23.044;2023-12-20T05:30:50;92981.97;;;-0.35;98.80
15568;BME280;7885;42.596;23.044;2023-12-20T05:33:16;92970.22;;;-0.43;97.30
15568;BME280;7885;42.596;23.044;2023-12-20T05:35:43;92959.72;;;-0.48;97.18
15568;BME280;7885;42.596;23.044;2023-12-20T05:38:10;92981.63;;;-0.34;96.51
15568;BME280;7885;42.596;23.044;2023-12-20T05:40:37;92932.91;;;-0.60;96.14
15568;BME280;7885;42.596;23.044;2023-12-20T05:43:03;92960.50;;;-0.47;95.69
15568;BME280;7885;42.596;23.044;2023-12-20T05:45:32;92982.41;;;-0.33;95.78
15568;BME280;7885;42.596;23.044;2023-12-20T05:47:58;92975.63;;;-0.31;95.50
15568;BME280;7885;42.596;23.044;2023-12-20T05:50:25;92972.19;;;-0.31;95.45
15568;BME280;7885;42.596;23.044;2023-12-20T05:56:13;92969.00;;;-0.25;94.67
15568;BME280;7885;42.596;23.044;2023-12-20T05:58:40;92953.94;;;-0.29;94.52
15568;BME280;7885;42.596;23.044;2023-12-20T06:01:07;92952.44;;;-0.39;94.69
15568;BME280;7885;42.596;23.044;2023-12-20T06:03:34;92919.81;;;-0.53;94.90
15568;BME280;7885;42.596;23.044;2023-12-20T06:06:05;92948.25;;;-0.28;94.68
15568;BME280;7885;42.596;23.044;2023-12-20T06:08:32;92795.56;;;-1.30;94.50
15568;BME280;7885;42.596;23.044;2023-12-20T06:10:59;92920.09;;;-0.46;94.39
15568;BME280;7885;42.596;23.044;2023-12-20T06:13:25;92939.13;;;-0.27;93.95
15568;BME280;7885;42.596;23.044;2023-12-20T06:15:54;92940.56;;;-0.29;93.97
15568;BME280;7885;42.596;23.044;2023-12-20T06:18:22;92852.59;;;-0.84;93.91
15568;BME280;7885;42.596;23.044;2023-12-20T06:20:49;92955.03;;;-0.30;94.17
15568;BME280;7885;42.596;23.044;2023-12-20T06:23:16;92952.09;;;-0.37;94.89
15568;BME280;7885;42.596;23.044;2023-12-20T06:35:49;92968.34;;;-0.42;94.50
15568;BME280;7885;42.596;23.044;2023-12-20T06:38:18;92955.81;;;-0.51;94.40
15568;BME280;7885;42.596;23.044;2023-12-20T06:40:45;92951.25;;;-0.50;94.94
15568;BME280;7885;42.596;23.044;2023-12-20T06:43:12;92955.16;;;-0.47;94.26
15568;BME280;7885;42.596;23.044;2023-12-20T06:45:39;92940.16;;;-0.61;94.60
15568;BME280;7885;42.596;23.044;2023-12-20T06:48:06;92959.84;;;-0.44;95.64
15568;BME280;7885;42.596;23.044;2023-12-20T06:50:33;92953.09;;;-0.42;95.03
15568;BME280;7885;42.596;23.044;2023-12-20T06:56:23;92890.72;;;-0.55;94.14
15568;BME280;7885;42.596;23.044;2023-12-20T06:58:50;92939.97;;;-0.14;93.97
15568;BME280;7885;42.596;23.044;2023-12-20T07:01:16;92944.72;;;0.01;93.50
15568;BME280;7885;42.596;23.044;2023-12-20T07:03:43;92917.13;;;-0.12;92.90
15568;BME280;7885;42.596;23.044;2023-12-20T07:06:10;92946.13;;;0.19;92.27
15568;BME280;7885;42.596;23.044;2023-12-20T07:08:37;92943.47;;;0.19;91.81
15568;BME280;7885;42.596;23.044;2023-12-20T07:11:04;92921.78;;;0.12;91.42
15568;BME280;7885;42.596;23.044;2023-12-20T07:13:32;92902.41;;;0.15;91.37
15568;BME280;7885;42.596;23.044;2023-12-20T07:15:59;92923.66;;;0.32;90.98
15568;BME280;7885;42.596;23.044;2023-12-20T07:18:26;92874.97;;;0.18;91.15
15568;BME280;7885;42.596;23.044;2023-12-20T07:20:53;92925.28;;;0.58;90.25
15568;BME280;7885;42.596;23.044;2023-12-20T07:23:20;92918.81;;;0.71;89.63
15568;BME280;7885;42.596;23.044;2023-12-20T07:25:47;92922.31;;;0.95;89.27
15568;BME280;7885;42.596;23.044;2023-12-20T07:28:14;92912.25;;;1.05;87.84
15568;BME280;7885;42.596;23.044;2023-12-20T07:30:42;92909.47;;;1.13;87.39
15568;BME280;7885;42.596;23.044;2023-12-20T07:33:09;92908.56;;;1.33;86.45
15568;BME280;7885;42.596;23.044;2023-12-20T07:35:37;92874.19;;;1.23;85.26
15568;BME280;7885;42.596;23.044;2023-12-20T07:38:04;92914.22;;;1.56;84.42
15568;BME280;7885;42.596;23.044;2023-12-20T07:40:31;92930.13;;;1.89;83.92
15568;BME280;7885;42.596;23.044;2023-12-20T07:42:58;92926.25;;;2.14;83.55
15568;BME280;7885;42.596;23.044;2023-12-20T07:45:25;92914.53;;;2.34;83.19
15568;BME280;7885;42.596;23.044;2023-12-20T07:47:53;92895.78;;;3.13;81.37
15568;BME280;7885;42.596;23.044;2023-12-20T07:50:20;92812.16;;;3.52;75.46
15568;BME280;7885;42.596;23.044;2023-12-20T07:52:47;92879.38;;;4.26;73.02
15568;BME280;7885;42.596;23.044;2023-12-20T07:55:13;92908.47;;;4.78;72.51
15568;BME280;7885;42.596;23.044;2023-12-20T07:57:40;92913.13;;;5.49;70.32
15568;BME280;7885;42.596;23.044;2023-12-20T08:00:08;92902.00;;;6.36;64.33
15568;BME280;7885;42.596;23.044;2023-12-20T08:02:35;92904.09;;;6.87;62.00
15568;BME280;7885;42.596;23.044;2023-12-20T08:05:03;92907.09;;;7.15;60.01
15568;BME280;7885;42.596;23.044;2023-12-20T08:07:30;92906.59;;;6.66;60.60
15568;BME280;7885;42.596;23.044;2023-12-20T08:09:57;92890.53;;;6.13;62.48
15568;BME280;7885;42.596;23.044;2023-12-20T08:12:24;92900.34;;;6.28;64.56
15568;BME280;7885;42.596;23.044;2023-12-20T08:14:52;92911.91;;;6.58;62.66
15568;BME280;7885;42.596;23.044;2023-12-20T08:17:19;92891.41;;;6.24;62.84
15568;BME280;7885;42.596;23.044;2023-12-20T08:19:46;92899.91;;;5.93;63.13
15568;BME280;7885;42.596;23.044;2023-12-20T08:22:14;92887.41;;;5.58;64.83
15568;BME280;7885;42.596;23.044;2023-12-20T08:24:41;92882.53;;;5.41;65.45
15568;BME280;7885;42.596;23.044;2023-12-20T08:27:08;92868.31;;;5.18;66.68
15568;BME280;7885;42.596;23.044;2023-12-20T08:29:35;92870.38;;;5.02;67.44
15568;BME280;7885;42.596;23.044;2023-12-20T08:32:02;92843.00;;;4.54;67.78
15568;BME280;7885;42.596;23.044;2023-12-20T08:34:30;92824.41;;;4.27;69.04
15568;BME280;7885;42.596;23.044;2023-12-20T08:36:56;92873.81;;;4.34;70.43
15568;BME280;7885;42.596;23.044;2023-12-20T08:39:29;92825.84;;;3.82;72.12
15568;BME280;7885;42.596;23.044;2023-12-20T08:41:58;92871.53;;;3.98;73.08
15568;BME280;7885;42.596;23.044;2023-12-20T08:44:25;92853.41;;;3.76;75.18
15568;BME280;7885;42.596;23.044;2023-12-20T08:46:52;92864.78;;;3.69;76.46
15568;BME280;7885;42.596;23.044;2023-12-20T08:49:22;92854.56;;;3.59;77.05
15568;BME280;7885;42.596;23.044;2023-12-20T08:51:49;92848.69;;;3.53;77.13
15568;BME280;7885;42.596;23.044;2023-12-20T08:54:16;92849.72;;;3.49;77.21
15568;BME280;7885;42.596;23.044;2023-12-20T08:56:45;92788.16;;;3.09;77.66
15568;BME280;7885;42.596;23.044;2023-12-20T08:59:12;92822.38;;;3.28;78.09
15568;BME280;7885;42.596;23.044;2023-12-20T09:01:39;92780.28;;;3.00;79.54
15568;BME280;7885;42.596;23.044;2023-12-20T09:04:06;92832.38;;;3.12;80.71
15568;BME280;7885;42.596;23.044;2023-12-20T09:06:33;92806.53;;;3.07;81.12
15568;BME280;7885;42.596;23.044;2023-12-20T09:08:59;92771.72;;;2.95;80.94
15568;BME280;7885;42.596;23.044;2023-12-20T09:11:26;92798.09;;;3.24;80.62
15568;BME280;7885;42.596;23.044;2023-12-20T09:17:16;92750.53;;;3.28;79.72
15568;BME280;7885;42.596;23.044;2023-12-20T09:19:44;92786.97;;;3.61;79.58
15568;BME280;7885;42.596;23.044;2023-12-20T09:22:11;92764.84;;;3.71;79.01
15568;BME280;7885;42.596;23.044;2023-12-20T09:24:38;92770.06;;;4.02;79.37
15568;BME280;7885;42.596;23.044;2023-12-20T09:27:05;92757.13;;;4.30;78.11
15568;BME280;7885;42.596;23.044;2023-12-20T09:29:32;92729.13;;;4.38;76.59
15568;BME280;7885;42.596;23.044;2023-12-20T09:31:59;92775.69;;;5.10;74.68
15568;BME280;7885;42.596;23.044;2023-12-20T09:34:27;92725.94;;;5.64;72.42
15568;BME280;7885;42.596;23.044;2023-12-20T09:53:45;92712.56;;;18.94;31.22
15568;BME280;7885;42.596;23.044;2023-12-20T09:56:14;92707.97;;;19.61;29.42
15568;BME280;7885;42.596;23.044;2023-12-20T09:58:41;92714.06;;;20.33;28.07
15568;BME280;7885;42.596;23.044;2023-12-20T10:01:08;92545.69;;;19.84;27.67
15568;BME280;7885;42.596;23.044;2023-12-20T10:03:35;92700.63;;;20.95;26.74
15568;BME280;7885;42.596;23.044;2023-12-20T10:06:06;92696.22;;;20.61;26.59
15568;BME280;7885;42.596;23.044;2023-12-20T10:08:33;92706.53;;;20.60;26.33
15568;BME280;7885;42.596;23.044;2023-12-20T10:11:02;92655.53;;;20.52;25.97
15568;BME280;7885;42.596;23.044;2023-12-20T10:13:29;92694.75;;;21.02;25.62
15568;BME280;7885;42.596;23.044;2023-12-20T10:15:56;92677.78;;;21.27;25.95
15568;BME280;7885;42.596;23.044;2023-12-20T10:18:23;92643.66;;;20.70;25.50
15568;BME280;7885;42.596;23.044;2023-12-20T10:20:50;92650.91;;;21.19;25.64
15568;BME280;7885;42.596;23.044;2023-12-20T10:23:17;92678.78;;;21.72;25.34
15568;BME280;7885;42.596;23.044;2023-12-20T10:25:55;92615.38;;;21.17;25.03
15568;BME280;7885;42.596;23.044;2023-12-20T10:28:23;92667.56;;;21.66;25.60
15568;BME280;7885;42.596;23.044;2023-12-20T10:30:53;92645.06;;;21.73;25.15
15568;BME280;7885;42.596;23.044;2023-12-20T10:33:24;92642.81;;;21.62;25.14
15568;BME280;7885;42.596;23.044;2023-12-20T10:35:52;92628.63;;;21.70;25.16
15568;BME280;7885;42.596;23.044;2023-12-20T10:38:19;92620.63;;;21.72;25.28
15568;BME280;7885;42.596;23.044;2023-12-20T10:40:46;92636.13;;;21.54;25.47
15568;BME280;7885;42.596;23.044;2023-12-20T10:43:12;92633.28;;;21.40;25.88
15568;BME280;7885;42.596;23.044;2023-12-20T10:45:41;92597.09;;;21.20;25.79
15568;BME280;7885;42.596;23.044;2023-12-20T10:48:10;92594.38;;;21.34;25.76
15568;BME280;7885;42.596;23.044;2023-12-20T10:50:37;92614.38;;;21.86;25.47
15568;BME280;7885;42.596;23.044;2023-12-20T10:53:06;92614.81;;;22.08;25.31
15568;BME280;7885;42.596;23.044;2023-12-20T10:55:33;92607.25;;;21.94;25.34
15568;BME280;7885;42.596;23.044;2023-12-20T10:58:01;92598.34;;;21.90;25.28
15568;BME280;7885;42.596;23.044;2023-12-20T11:00:29;92580.81;;;21.84;25.56
15568;BME280;7885;42.596;23.044;2023-12-20T11:03:00;92543.84;;;21.48;25.55
15568;BME280;7885;42.596;23.044;2023-12-20T11:05:33;92579.53;;;21.70;26.04
15568;BME280;7885;42.596;23.044;2023-12-20T11:08:07;92555.50;;;21.52;25.80
15568;BME280;7885;42.596;23.044;2023-12-20T11:10:42;92580.09;;;20.94;26.78
15568;BME280;7885;42.596;23.044;2023-12-20T11:13:16;92574.63;;;20.43;27.48
15568;BME280;7885;42.596;23.044;2023-12-20T11:15:44;92508.25;;;19.55;28.19
15568;BME280;7885;42.596;23.044;2023-12-20T11:18:12;92556.13;;;19.61;28.85
15568;BME280;7885;42.596;23.044;2023-12-20T11:20:40;92543.47;;;19.06;29.97
15568;BME280;7885;42.596;23.044;2023-12-20T11:23:08;92543.81;;;19.35;30.44
15568;BME280;7885;42.596;23.044;2023-12-20T11:25:46;92541.25;;;19.50;30.03
15568;BME280;7885;42.596;23.044;2023-12-20T11:28:14;92536.78;;;19.52;29.97
15568;BME280;7885;42.596;23.044;2023-12-20T11:30:47;92511.91;;;19.25;30.43
15568;BME280;7885;42.596;23.044;2023-12-20T11:33:15;92468.53;;;18.49;31.20
15568;BME280;7885;42.596;23.044;2023-12-20T11:35:43;92499.78;;;18.46;32.09
15568;BME280;7885;42.596;23.044;2023-12-20T11:38:13;92500.75;;;18.31;32.37
15568;BME280;7885;42.596;23.044;2023-12-20T11:40:41;92499.00;;;18.06;33.37
15568;BME280;7885;42.596;23.044;2023-12-20T11:43:08;92476.09;;;17.65;35.12
15568;BME280;7885;42.596;23.044;2023-12-20T11:45:35;92498.47;;;17.67;34.23
15568;BME280;7885;42.596;23.044;2023-12-20T11:51:33;92480.47;;;16.98;37.19
15568;BME280;7885;42.596;23.044;2023-12-20T11:54:00;92487.22;;;16.84;37.88
15568;BME280;7885;42.596;23.044;2023-12-20T11:56:27;92479.38;;;16.36;38.59
15568;BME280;7885;42.596;23.044;2023-12-20T11:58:55;92465.84;;;16.41;39.32
15568;BME280;7885;42.596;23.044;2023-12-20T12:01:22;92452.81;;;16.20;38.59
15568;BME280;7885;42.596;23.044;2023-12-20T12:04:02;92447.75;;;16.18;39.24
15568;BME280;7885;42.596;23.044;2023-12-20T12:06:28;92428.84;;;16.33;39.19
15568;BME280;7885;42.596;23.044;2023-12-20T12:08:56;92447.63;;;16.47;39.16
15568;BME280;7885;42.596;23.044;2023-12-20T12:11:23;92438.50;;;16.50;39.21
15568;BME280;7885;42.596;23.044;2023-12-20T12:13:50;92423.44;;;16.42;39.30
15568;BME280;7885;42.596;23.044;2023-12-20T12:16:17;92440.13;;;16.60;39.47
15568;BME280;7885;42.596;23.044;2023-12-20T12:18:44;92431.13;;;16.47;39.50
15568;BME280;7885;42.596;23.044;2023-12-20T12:21:18;92430.25;;;16.50;39.59
15568;BME280;7885;42.596;23.044;2023-12-20T12:23:45;92434.19;;;16.49;39.90
15568;BME280;7885;42.596;23.044;2023-12-20T12:26:14;92418.59;;;16.46;40.28
15568;BME280;7885;42.596;23.044;2023-12-20T12:28:41;92419.53;;;16.18;40.98
15568;BME280;7885;42.596;23.044;2023-12-20T12:31:08;92418.13;;;16.01;41.78
15568;BME280;7885;42.596;23.044;2023-12-20T12:33:35;92399.78;;;15.73;42.41
15568;BME280;7885;42.596;23.044;2023-12-20T12:36:02;92409.88;;;15.76;43.13
15568;BME280;7885;42.596;23.044;2023-12-20T12:38:30;92416.03;;;15.54;43.31
15568;BME280;7885;42.596;23.044;2023-12-20T12:40:57;92412.03;;;15.30;45.00
15568;BME280;7885;42.596;23.044;2023-12-20T12:43:25;92386.97;;;15.03;44.51
15568;BME280;7885;42.596;23.044;2023-12-20T12:45:53;92407.81;;;15.13;44.84
15568;BME280;7885;42.596;23.044;2023-12-20T12:48:20;92414.19;;;15.10;45.21
15568;BME280;7885;42.596;23.044;2023-12-20T12:50:48;92413.16;;;15.04;45.45
15568;BME280;7885;42.596;23.044;2023-12-20T12:53:17;92383.59;;;14.83;45.85
15568;BME280;7885;42.596;23.044;2023-12-20T12:55:44;92399.28;;;14.53;47.46
15568;BME280;7885;42.596;23.044;2023-12-20T12:58:11;92394.94;;;14.40;48.07
15568;BME280;7885;42.596;23.044;2023-12-20T13:00:39;92401.28;;;14.04;48.45
15568;BME280;7885;42.596;23.044;2023-12-20T13:03:06;92396.56;;;13.73;49.48
15568;BME280;7885;42.596;23.044;2023-12-20T13:05:33;92402.03;;;13.73;50.31
15568;BME280;7885;42.596;23.044;2023-12-20T13:14:43;92396.78;;;12.71;54.21
15568;BME280;7885;42.596;23.044;2023-12-20T13:17:12;92399.09;;;12.52;55.19
15568;BME280;7885;42.596;23.044;2023-12-20T13:19:38;92391.78;;;12.26;56.34
15568;BME280;7885;42.596;23.044;2023-12-20T13:22:05;92383.75;;;11.96;57.74
15568;BME280;7885;42.596;23.044;2023-12-20T13:24:32;92339.25;;;11.52;58.86
15568;BME280;7885;42.596;23.044;2023-12-20T13:26:59;92339.44;;;11.42;60.32
15568;BME280;7885;42.596;23.044;2023-12-20T13:29:26;92391.34;;;11.58;60.79
15568;BME280;7885;42.596;23.044;2023-12-20T13:31:52;92367.97;;;11.34;61.46
15568;BME280;7885;42.596;23.044;2023-12-20T13:34:20;92393.63;;;11.36;61.57
15568;BME280;7885;42.596;23.044;2023-12-20T13:36:47;92386.28;;;11.33;61.80
15568;BME280;7885;42.596;23.044;2023-12-20T13:39:16;92340.31;;;10.82;62.66
15568;BME280;7885;42.596;23.044;2023-12-20T13:41:43;92389.88;;;10.96;63.32
15568;BME280;7885;42.596;23.044;2023-12-20T13:44:10;92374.97;;;10.78;64.55
15568;BME280;7885;42.596;23.044;2023-12-20T13:46:37;92327.75;;;10.31;65.30
15568;BME280;7885;42.596;23.044;2023-12-20T13:49:04;92389.50;;;10.68;65.51
15568;BME280;7885;42.596;23.044;2023-12-20T13:51:32;92380.84;;;10.73;65.84
15568;BME280;7885;42.596;23.044;2023-12-20T13:53:59;92385.22;;;10.67;66.30
15568;BME280;7885;42.596;23.044;2023-12-20T13:56:26;92378.72;;;10.57;67.02
15568;BME280;7885;42.596;23.044;2023-12-20T13:58:52;92381.94;;;10.48;67.57
15568;BME280;7885;42.596;23.044;2023-12-20T14:01:19;92383.53;;;10.46;68.27